createdAt,value
2018-08-10T00:00:15.854Z,17.56
2018-08-10T00:01:15.828Z,17.44
2018-08-10T00:02:15.794Z,17.51
2018-08-10T00:03:15.763Z,17.56
2018-08-10T00:04:15.710Z,17.54
2018-08-10T00:05:15.674Z,17.56
2018-08-10T00:06:15.641Z,17.54
2018-08-10T00:07:15.598Z,17.58
2018-08-10T00:08:15.585Z,17.54
2018-08-10T00:09:15.520Z,17.52
2018-08-10T00:10:15.483Z,17.54
2018-08-10T00:11:15.441Z,17.51
2018-08-10T00:12:15.402Z,17.48
2018-08-10T00:13:15.404Z,17.54
2018-08-10T00:14:15.341Z,17.54
2018-08-10T00:15:15.300Z,17.51
2018-08-10T00:16:15.273Z,17.55
2018-08-10T00:17:15.220Z,17.55
2018-08-10T00:18:15.210Z,17.52
2018-08-10T00:19:15.148Z,17.56
2018-08-10T00:20:15.110Z,17.66
2018-08-10T00:21:15.071Z,17.59
2018-08-10T00:22:15.029Z,17.63
2018-08-10T00:23:15.013Z,17.64
2018-08-10T00:24:14.955Z,17.66
2018-08-10T00:25:14.927Z,17.68
2018-08-10T00:26:14.899Z,17.58
2018-08-10T00:27:14.847Z,17.59
2018-08-10T00:28:14.832Z,17.70
2018-08-10T00:29:14.771Z,17.55
2018-08-10T00:30:14.730Z,17.52
2018-08-10T00:31:14.693Z,17.44
2018-08-10T00:32:14.656Z,17.48
2018-08-10T00:33:14.647Z,17.43
2018-08-10T00:34:14.585Z,17.41
2018-08-10T00:35:14.541Z,17.41
2018-08-10T00:36:14.524Z,17.38
2018-08-10T00:37:14.472Z,17.23
2018-08-10T00:38:14.461Z,17.40
2018-08-10T00:39:14.400Z,17.41
2018-08-10T00:40:14.369Z,17.33
2018-08-10T00:41:14.318Z,17.30
2018-08-10T00:42:14.283Z,17.38
2018-08-10T00:43:14.266Z,17.28
2018-08-10T00:44:14.207Z,17.28
2018-08-10T00:45:14.173Z,17.31
2018-08-10T00:46:14.138Z,17.31
2018-08-10T00:47:14.098Z,17.25
2018-08-10T00:48:14.058Z,17.21
2018-08-10T00:49:14.041Z,17.21
2018-08-10T00:50:13.979Z,17.22
2018-08-10T00:51:13.948Z,17.23
2018-08-10T00:52:13.907Z,17.15
2018-08-10T00:53:13.864Z,17.21
2018-08-10T00:54:13.857Z,17.18
2018-08-10T00:55:13.790Z,17.16
2018-08-10T00:56:13.755Z,17.19
2018-08-10T00:57:13.722Z,17.23
2018-08-10T00:58:13.682Z,17.14
2018-08-10T00:59:13.674Z,17.21
2018-08-10T01:00:13.609Z,17.25
2018-08-10T01:01:13.568Z,17.21
2018-08-10T01:02:13.528Z,17.16
2018-08-10T01:03:13.492Z,17.28
2018-08-10T01:04:13.476Z,17.15
2018-08-10T01:05:13.418Z,17.18
2018-08-10T01:06:13.376Z,17.26
2018-08-10T01:07:13.343Z,17.14
2018-08-10T01:08:13.302Z,17.11
2018-08-10T01:09:13.272Z,17.16
2018-08-10T01:10:13.258Z,17.11
2018-08-10T01:11:13.195Z,17.11
2018-08-10T01:12:13.162Z,17.11
2018-08-10T01:13:13.166Z,17.16
2018-08-10T01:14:13.075Z,17.12
2018-08-10T01:15:13.063Z,17.12
2018-08-10T01:16:12.999Z,17.19
2018-08-10T01:17:12.967Z,17.12
2018-08-10T01:18:12.933Z,17.01
2018-08-10T01:19:12.929Z,17.04
2018-08-10T01:20:12.925Z,17.06
2018-08-10T01:21:12.813Z,16.98
2018-08-10T01:22:12.779Z,16.94
2018-08-10T01:23:12.743Z,16.82
2018-08-10T01:24:12.705Z,16.91
2018-08-10T01:25:12.660Z,16.79
2018-08-10T01:26:12.649Z,16.81
2018-08-10T01:27:12.584Z,16.81
2018-08-10T01:28:12.590Z,16.86
2018-08-10T01:29:12.513Z,16.85
2018-08-10T01:30:12.477Z,16.85
2018-08-10T01:31:12.462Z,16.76
2018-08-10T01:32:12.408Z,16.82
2018-08-10T01:33:12.356Z,16.78
2018-08-10T01:34:12.318Z,16.73
2018-08-10T01:35:12.284Z,16.78
2018-08-10T01:36:12.286Z,16.75
2018-08-10T01:37:12.218Z,16.67
2018-08-10T01:38:12.176Z,16.67
2018-08-10T01:39:12.128Z,16.67
2018-08-10T01:40:12.094Z,16.52
2018-08-10T01:41:12.081Z,16.48
2018-08-10T01:42:12.020Z,16.42
2018-08-10T01:43:11.986Z,16.48
2018-08-10T01:44:11.944Z,16.58
2018-08-10T01:45:11.929Z,16.42
2018-08-10T01:46:11.870Z,16.41
2018-08-10T01:47:11.825Z,16.50
2018-08-10T01:48:11.787Z,16.38
2018-08-10T01:49:11.758Z,16.30
2018-08-10T01:50:11.720Z,16.34
2018-08-10T01:51:11.699Z,16.48
2018-08-10T01:52:11.643Z,16.39
2018-08-10T01:53:11.594Z,16.30
2018-08-10T01:54:11.562Z,16.31
2018-08-10T01:55:11.526Z,16.34
2018-08-10T01:56:11.513Z,16.38
2018-08-10T01:57:11.445Z,16.34
2018-08-10T01:58:11.409Z,16.35
2018-08-10T01:59:11.369Z,16.38
2018-08-10T02:00:11.331Z,16.30
2018-08-10T02:01:11.324Z,16.34
2018-08-10T02:02:11.264Z,16.39
2018-08-10T02:03:11.224Z,16.35
2018-08-10T02:04:11.185Z,16.35
2018-08-10T02:05:11.152Z,16.33
2018-08-10T02:06:11.102Z,16.35
2018-08-10T02:07:11.085Z,16.30
2018-08-10T02:08:11.023Z,16.39
2018-08-10T02:09:10.995Z,16.27
2018-08-10T02:10:10.955Z,16.17
2018-08-10T02:11:10.933Z,16.27
2018-08-10T02:12:10.880Z,16.25
2018-08-10T02:13:10.844Z,16.24
2018-08-10T02:14:10.807Z,16.28
2018-08-10T02:15:10.765Z,16.24
2018-08-10T02:16:10.758Z,16.27
2018-08-10T02:17:10.682Z,16.21
2018-08-10T02:18:10.644Z,16.20
2018-08-10T02:19:10.607Z,16.04
2018-08-10T02:20:10.564Z,16.14
2018-08-10T02:21:10.534Z,16.05
2018-08-10T02:22:10.518Z,16.15
2018-08-10T02:23:10.460Z,16.12
2018-08-10T02:24:10.423Z,16.00
2018-08-10T02:25:10.377Z,16.05
2018-08-10T02:26:10.337Z,16.04
2018-08-10T02:27:10.328Z,16.07
2018-08-10T02:28:10.269Z,16.07
2018-08-10T02:29:10.222Z,16.07
2018-08-10T02:30:10.185Z,16.07
2018-08-10T02:31:10.145Z,16.09
2018-08-10T02:32:10.133Z,16.08
2018-08-10T02:33:10.077Z,16.00
2018-08-10T02:34:10.037Z,16.01
2018-08-10T02:35:10.002Z,16.01
2018-08-10T02:36:09.960Z,16.07
2018-08-10T02:37:09.917Z,15.97
2018-08-10T02:38:09.904Z,15.94
2018-08-10T02:39:09.838Z,15.90
2018-08-10T02:40:09.806Z,15.84
2018-08-10T02:41:09.769Z,15.82
2018-08-10T02:42:09.732Z,15.89
2018-08-10T02:43:09.713Z,15.92
2018-08-10T02:44:09.646Z,15.92
2018-08-10T02:45:09.621Z,15.93
2018-08-10T02:46:09.578Z,15.96
2018-08-10T02:47:09.545Z,15.89
2018-08-10T02:48:09.527Z,15.96
2018-08-10T02:49:09.457Z,15.87
2018-08-10T02:50:09.429Z,15.90
2018-08-10T02:51:09.381Z,15.93
2018-08-10T02:52:09.342Z,15.87
2018-08-10T02:53:09.313Z,15.78
2018-08-10T02:54:09.297Z,15.76
2018-08-10T02:55:09.242Z,15.68
2018-08-10T02:56:09.196Z,15.87
2018-08-10T02:57:09.150Z,15.80
2018-08-10T02:58:09.113Z,15.75
2018-08-10T02:59:09.109Z,15.76
2018-08-10T03:00:09.043Z,15.68
2018-08-10T03:01:08.995Z,15.76
2018-08-10T03:02:08.960Z,15.84
2018-08-10T03:03:08.921Z,15.82
2018-08-10T03:04:08.898Z,15.89
2018-08-10T03:05:08.860Z,15.84
2018-08-10T03:06:08.812Z,15.82
2018-08-10T03:07:08.775Z,15.87
2018-08-10T03:08:08.736Z,15.89
2018-08-10T03:09:08.710Z,15.87
2018-08-10T03:10:08.650Z,15.83
2018-08-10T03:11:08.611Z,15.93
2018-08-10T03:12:08.578Z,15.90
2018-08-10T03:13:08.545Z,15.90
2018-08-10T03:14:08.526Z,15.93
2018-08-10T03:15:08.463Z,15.92
2018-08-10T03:16:08.419Z,15.90
2018-08-10T03:17:08.388Z,15.76
2018-08-10T03:18:08.353Z,15.76
2018-08-10T03:19:08.332Z,15.82
2018-08-10T03:20:08.280Z,15.78
2018-08-10T03:21:08.231Z,15.74
2018-08-10T03:22:08.226Z,15.74
2018-08-10T03:23:08.153Z,15.86
2018-08-10T03:24:08.149Z,15.76
2018-08-10T03:25:08.080Z,15.76
2018-08-10T03:26:08.041Z,15.75
2018-08-10T03:27:08.009Z,15.71
2018-08-10T03:28:07.975Z,15.65
2018-08-10T03:29:07.951Z,15.68
2018-08-10T03:30:07.898Z,15.62
2018-08-10T03:31:07.868Z,15.65
2018-08-10T03:32:07.814Z,15.69
2018-08-10T03:33:07.770Z,15.69
2018-08-10T03:34:07.730Z,15.59
2018-08-10T03:35:07.716Z,15.60
2018-08-10T03:36:07.652Z,15.62
2018-08-10T03:37:07.622Z,15.44
2018-08-10T03:38:07.590Z,15.49
2018-08-10T03:39:07.545Z,15.51
2018-08-10T03:40:07.533Z,15.53
2018-08-10T03:41:07.464Z,15.44
2018-08-10T03:42:07.426Z,15.36
2018-08-10T03:43:07.384Z,15.36
2018-08-10T03:44:07.348Z,15.35
2018-08-10T03:45:07.314Z,15.34
2018-08-10T03:46:07.299Z,15.32
2018-08-10T03:47:07.229Z,15.25
2018-08-10T03:48:07.199Z,15.25
2018-08-10T03:49:07.160Z,15.28
2018-08-10T03:50:07.125Z,15.27
2018-08-10T03:51:07.106Z,15.14
2018-08-10T03:52:07.046Z,15.06
2018-08-10T03:53:07.004Z,15.11
2018-08-10T03:54:06.961Z,15.11
2018-08-10T03:55:06.926Z,15.10
2018-08-10T03:56:06.905Z,15.03
2018-08-10T03:57:06.854Z,15.02
2018-08-10T03:58:06.817Z,15.03
2018-08-10T03:59:06.774Z,15.07
2018-08-10T04:00:06.745Z,15.03
2018-08-10T04:01:06.719Z,14.92
2018-08-10T04:02:06.652Z,14.98
2018-08-10T04:03:06.625Z,15.01
2018-08-10T04:04:06.585Z,14.84
2018-08-10T04:05:06.538Z,14.92
2018-08-10T04:06:06.499Z,14.83
2018-08-10T04:07:06.485Z,14.88
2018-08-10T04:08:06.442Z,14.84
2018-08-10T04:09:06.454Z,14.77
2018-08-10T04:10:06.353Z,14.69
2018-08-10T04:11:06.367Z,14.72
2018-08-10T04:12:06.417Z,14.70
2018-08-10T04:13:06.226Z,14.75
2018-08-10T04:14:06.194Z,14.69
2018-08-10T04:15:06.148Z,14.70
2018-08-10T04:16:06.118Z,14.64
2018-08-10T04:17:06.106Z,14.61
2018-08-10T04:18:06.038Z,14.62
2018-08-10T04:19:05.994Z,14.52
2018-08-10T04:20:05.953Z,14.55
2018-08-10T04:21:05.928Z,14.47
2018-08-10T04:22:05.887Z,14.42
2018-08-10T04:23:05.867Z,14.42
2018-08-10T04:24:05.808Z,14.45
2018-08-10T04:25:05.764Z,14.39
2018-08-10T04:26:05.725Z,14.40
2018-08-10T04:27:05.685Z,14.29
2018-08-10T04:28:05.669Z,14.37
2018-08-10T04:29:05.612Z,14.22
2018-08-10T04:30:05.576Z,14.40
2018-08-10T04:31:05.539Z,14.29
2018-08-10T04:32:05.499Z,14.37
2018-08-10T04:33:05.477Z,14.22
2018-08-10T04:34:05.411Z,14.25
2018-08-10T04:35:05.384Z,14.22
2018-08-10T04:36:05.346Z,14.29
2018-08-10T04:37:05.295Z,14.36
2018-08-10T04:38:05.258Z,14.42
2018-08-10T04:39:05.236Z,14.40
2018-08-10T04:40:05.178Z,14.45
2018-08-10T04:41:05.155Z,14.39
2018-08-10T04:42:05.108Z,14.54
2018-08-10T04:43:05.068Z,14.60
2018-08-10T04:44:05.053Z,14.62
2018-08-10T04:45:04.985Z,14.65
2018-08-10T04:46:04.956Z,14.69
2018-08-10T04:47:04.908Z,14.73
2018-08-10T04:48:04.880Z,14.75
2018-08-10T04:49:04.864Z,14.73
2018-08-10T04:50:04.795Z,14.86
2018-08-10T04:51:04.749Z,14.81
2018-08-10T04:52:04.712Z,14.91
2018-08-10T04:53:04.680Z,14.91
2018-08-10T04:54:04.640Z,14.99
2018-08-10T04:55:04.665Z,15.01
2018-08-10T04:56:04.558Z,14.99
2018-08-10T04:57:04.516Z,15.02
2018-08-10T04:58:04.476Z,15.03
2018-08-10T04:59:04.461Z,15.09
2018-08-10T05:00:04.400Z,15.20
2018-08-10T05:01:04.368Z,15.34
2018-08-10T05:02:04.324Z,15.39
2018-08-10T05:03:04.289Z,15.43
2018-08-10T05:04:04.252Z,15.46
2018-08-10T05:05:04.228Z,15.53
2018-08-10T05:06:04.166Z,15.43
2018-08-10T05:07:04.140Z,15.41
2018-08-10T05:08:04.101Z,15.46
2018-08-10T05:09:04.049Z,15.49
2018-08-10T05:10:04.041Z,15.53
2018-08-10T05:11:03.970Z,15.80
2018-08-10T05:12:03.936Z,16.49
2018-08-10T05:13:03.902Z,17.15
2018-08-10T05:14:03.867Z,17.63
2018-08-10T05:15:03.853Z,18.37
2018-08-10T05:16:03.789Z,18.78
2018-08-10T05:17:03.749Z,19.23
2018-08-10T05:18:03.703Z,19.41
2018-08-10T05:19:03.667Z,19.68
2018-08-10T05:20:03.629Z,19.94
2018-08-10T05:21:03.623Z,19.80
2018-08-10T05:22:03.559Z,19.46
2018-08-10T05:23:03.519Z,19.62
2018-08-10T05:24:03.478Z,19.66
2018-08-10T05:25:03.452Z,20.52
2018-08-10T05:26:03.436Z,20.98
2018-08-10T05:27:03.372Z,20.95
2018-08-10T05:28:03.339Z,21.31
2018-08-10T05:29:03.293Z,21.47
2018-08-10T05:30:03.257Z,20.97
2018-08-10T05:31:03.218Z,20.66
2018-08-10T05:32:03.210Z,20.77
2018-08-10T05:33:03.152Z,21.29
2018-08-10T05:34:03.122Z,21.92
2018-08-10T05:35:03.086Z,22.46
2018-08-10T05:36:03.045Z,22.52
2018-08-10T05:37:03.025Z,22.60
2018-08-10T05:38:02.988Z,22.49
2018-08-10T05:39:02.937Z,22.09
2018-08-10T05:40:02.908Z,21.96
2018-08-10T05:41:02.862Z,21.16
2018-08-10T05:42:02.855Z,20.69
2018-08-10T05:43:02.789Z,20.70
2018-08-10T05:44:02.793Z,21.19
2018-08-10T05:45:02.739Z,21.98
2018-08-10T05:46:02.691Z,22.76
2018-08-10T05:47:02.700Z,23.09
2018-08-10T05:48:12.623Z,22.98
2018-08-10T05:49:02.582Z,23.42
2018-08-10T05:50:02.545Z,23.78
2018-08-10T05:51:02.599Z,23.95
2018-08-10T05:52:02.479Z,24.27
2018-08-10T05:53:02.464Z,24.47
2018-08-10T05:54:02.407Z,24.78
2018-08-10T05:55:02.387Z,24.62
2018-08-10T05:56:02.342Z,24.77
2018-08-10T05:57:02.307Z,25.20
2018-08-10T05:58:02.298Z,25.21
2018-08-10T05:59:02.233Z,23.84
2018-08-10T06:00:02.198Z,22.65
2018-08-10T06:01:02.166Z,22.15
2018-08-10T06:02:02.129Z,22.09
2018-08-10T06:03:02.122Z,21.50
2018-08-10T06:04:02.205Z,22.25
2018-08-10T06:05:02.034Z,21.88
2018-08-10T06:06:02.003Z,21.64
2018-08-10T06:07:01.960Z,21.71
2018-08-10T06:08:01.952Z,21.42
2018-08-10T06:09:01.898Z,21.46
2018-08-10T06:10:01.871Z,21.38
2018-08-10T06:11:01.833Z,21.90
2018-08-10T06:12:01.788Z,22.12
2018-08-10T06:13:01.793Z,21.71
2018-08-10T06:14:01.729Z,20.73
2018-08-10T06:15:01.703Z,21.01
2018-08-10T06:16:01.661Z,20.26
2018-08-10T06:17:01.624Z,20.24
2018-08-10T06:18:01.591Z,19.87
2018-08-10T06:19:01.573Z,19.83
2018-08-10T06:20:01.586Z,19.81
2018-08-10T06:21:01.479Z,19.71
2018-08-10T06:22:01.447Z,19.44
2018-08-10T06:23:01.476Z,19.31
2018-08-10T06:24:01.405Z,19.21
2018-08-10T06:25:01.422Z,19.02
2018-08-10T06:26:01.308Z,19.10
2018-08-10T06:27:01.280Z,18.92
2018-08-10T06:28:01.251Z,18.85
2018-08-10T06:29:01.234Z,18.80
2018-08-10T06:30:01.173Z,18.70
2018-08-10T06:31:01.133Z,18.62
2018-08-10T06:32:01.099Z,18.41
2018-08-10T06:33:01.059Z,18.33
2018-08-10T06:34:01.071Z,18.33
2018-08-10T06:35:01.024Z,18.27
2018-08-10T06:36:00.961Z,18.15
2018-08-10T06:37:00.929Z,18.27
2018-08-10T06:38:00.891Z,18.25
2018-08-10T06:39:00.849Z,18.29
2018-08-10T06:40:00.834Z,18.30
2018-08-10T06:41:00.819Z,19.62
2018-08-10T06:42:00.749Z,19.58
2018-08-10T06:43:00.703Z,19.58
2018-08-10T06:44:00.668Z,19.68
2018-08-10T06:45:00.748Z,19.80
2018-08-10T06:46:09.681Z,19.48
2018-08-10T06:47:00.563Z,19.11
2018-08-10T06:48:00.530Z,19.04
2018-08-10T06:49:00.497Z,18.91
2018-08-10T06:50:00.486Z,18.73
2018-08-10T06:51:00.433Z,18.54
2018-08-10T06:52:00.414Z,18.45
2018-08-10T06:53:00.397Z,18.44
2018-08-10T06:54:00.312Z,18.39
2018-08-10T06:55:00.340Z,18.62
2018-08-10T06:56:00.356Z,18.62
2018-08-10T06:57:00.230Z,18.48
2018-08-10T06:58:00.169Z,18.57
2018-08-10T06:59:00.137Z,18.47
2018-08-10T07:00:00.104Z,18.27
2018-08-10T07:01:00.141Z,18.29
2018-08-10T07:02:00.032Z,18.29
2018-08-10T07:03:00.004Z,18.44
2018-08-10T07:03:59.957Z,18.39
2018-08-10T07:04:59.920Z,18.45
2018-08-10T07:06:09.707Z,18.63
2018-08-10T07:06:59.853Z,18.72
2018-08-10T07:07:59.820Z,19.21
2018-08-10T07:08:59.770Z,19.08
2018-08-10T07:09:59.746Z,19.10
2018-08-10T07:10:59.735Z,19.95
2018-08-10T07:11:59.675Z,20.57
2018-08-10T07:12:59.693Z,20.35
2018-08-10T07:13:59.604Z,19.88
2018-08-10T07:14:59.557Z,19.87
2018-08-10T07:15:59.562Z,19.86
2018-08-10T07:16:59.497Z,19.83
2018-08-10T07:17:59.498Z,20.36
2018-08-10T07:18:59.436Z,20.85
2018-08-10T07:19:59.389Z,21.21
2018-08-10T07:20:59.378Z,21.44
2018-08-10T07:21:59.321Z,22.18
2018-08-10T07:22:59.275Z,22.68
2018-08-10T07:23:59.242Z,21.79
2018-08-10T07:25:10.722Z,22.05
2018-08-10T07:25:59.197Z,21.32
2018-08-10T07:26:59.178Z,22.36
2018-08-10T07:27:59.098Z,21.58
2018-08-10T07:28:59.090Z,21.01
2018-08-10T07:29:59.040Z,21.34
2018-08-10T07:30:59.002Z,22.40
2018-08-10T07:31:58.992Z,22.10
2018-08-10T07:32:58.929Z,22.09
2018-08-10T07:33:58.898Z,21.71
2018-08-10T07:34:58.863Z,21.56
2018-08-10T07:35:58.825Z,21.12
2018-08-10T07:36:58.821Z,21.31
2018-08-10T07:37:58.821Z,20.98
2018-08-10T07:38:58.727Z,20.70
2018-08-10T07:39:58.688Z,20.82
2018-08-10T07:40:58.661Z,20.80
2018-08-10T07:41:58.656Z,21.37
2018-08-10T07:42:58.602Z,21.72
2018-08-10T07:43:58.561Z,21.43
2018-08-10T07:45:08.766Z,21.38
2018-08-10T07:45:58.490Z,21.68
2018-08-10T07:46:58.461Z,22.06
2018-08-10T07:47:58.449Z,21.22
2018-08-10T07:48:58.390Z,21.58
2018-08-10T07:49:58.358Z,21.49
2018-08-10T07:50:58.325Z,21.44
2018-08-10T07:51:58.281Z,21.50
2018-08-10T07:52:58.277Z,21.17
2018-08-10T07:53:58.230Z,20.95
2018-08-10T07:54:58.180Z,21.06
2018-08-10T07:55:58.145Z,20.92
2018-08-10T07:56:58.114Z,20.52
2018-08-10T07:57:58.100Z,20.50
2018-08-10T07:58:58.067Z,20.95
2018-08-10T07:59:58.017Z,21.27
2018-08-10T08:00:57.983Z,21.04
2018-08-10T08:01:57.950Z,21.75
2018-08-10T08:02:57.931Z,22.47
2018-08-10T08:03:57.873Z,23.09
2018-08-10T08:05:09.313Z,23.36
2018-08-10T08:05:57.814Z,23.61
2018-08-10T08:06:57.789Z,23.93
2018-08-10T08:07:57.765Z,23.68
2018-08-10T08:08:57.741Z,23.72
2018-08-10T08:09:57.676Z,23.83
2018-08-10T08:10:57.644Z,23.25
2018-08-10T08:11:57.610Z,22.52
2018-08-10T08:12:57.574Z,22.24
2018-08-10T08:13:57.568Z,22.72
2018-08-10T08:14:57.507Z,23.33
2018-08-10T08:15:57.471Z,23.75
2018-08-10T08:16:57.447Z,24.09
2018-08-10T08:17:57.454Z,23.70
2018-08-10T08:18:57.381Z,24.09
2018-08-10T08:19:57.448Z,23.32
2018-08-10T08:20:57.308Z,22.90
2018-08-10T08:21:57.275Z,22.30
2018-08-10T08:22:57.255Z,22.12
2018-08-10T08:23:57.215Z,22.06
2018-08-10T08:24:57.201Z,21.84
2018-08-10T08:25:57.144Z,22.00
2018-08-10T08:26:57.115Z,22.55
2018-08-10T08:27:57.077Z,23.01
2018-08-10T08:28:57.052Z,23.39
2018-08-10T08:29:57.049Z,23.63
2018-08-10T08:30:56.986Z,24.10
2018-08-10T08:31:56.954Z,24.85
2018-08-10T08:32:56.940Z,24.84
2018-08-10T08:33:56.884Z,24.85
2018-08-10T08:34:56.947Z,25.09
2018-08-10T08:35:56.841Z,25.14
2018-08-10T08:36:56.839Z,24.40
2018-08-10T08:37:56.764Z,24.55
2018-08-10T08:38:56.731Z,24.76
2018-08-10T08:39:56.689Z,25.08
2018-08-10T08:40:56.741Z,24.99
2018-08-10T08:41:56.635Z,25.13
2018-08-10T08:42:56.610Z,25.00
2018-08-10T08:44:06.853Z,24.87
2018-08-10T08:44:56.538Z,25.43
2018-08-10T08:45:56.709Z,25.25
2018-08-10T08:46:56.477Z,25.27
2018-08-10T08:47:56.448Z,25.73
2018-08-10T08:48:56.417Z,25.30
2018-08-10T08:49:56.387Z,25.32
2018-08-10T08:50:56.372Z,24.73
2018-08-10T08:51:56.331Z,24.95
2018-08-10T08:52:56.294Z,25.13
2018-08-10T08:53:56.324Z,25.14
2018-08-10T08:54:56.226Z,25.14
2018-08-10T08:55:56.196Z,25.02
2018-08-10T08:56:56.185Z,24.58
2018-08-10T08:57:56.132Z,24.84
2018-08-10T08:58:56.113Z,24.77
2018-08-10T08:59:56.084Z,25.39
2018-08-10T09:00:56.051Z,25.55
2018-08-10T09:01:56.045Z,25.39
2018-08-10T09:02:55.996Z,25.45
2018-08-10T09:03:55.953Z,25.73
2018-08-10T09:04:55.932Z,25.69
2018-08-10T09:05:55.895Z,25.76
2018-08-10T09:06:55.912Z,25.88
2018-08-10T09:07:55.843Z,25.69
2018-08-10T09:08:55.806Z,25.69
2018-08-10T09:09:55.777Z,25.51
2018-08-10T09:10:55.756Z,25.17
2018-08-10T09:11:55.724Z,25.54
2018-08-10T09:12:55.734Z,25.43
2018-08-10T09:13:55.668Z,25.00
2018-08-10T09:14:55.630Z,25.32
2018-08-10T09:15:55.600Z,25.82
2018-08-10T09:16:55.611Z,25.90
2018-08-10T09:17:55.564Z,25.94
2018-08-10T09:18:55.530Z,26.36
2018-08-10T09:19:55.490Z,25.97
2018-08-10T09:20:55.462Z,24.99
2018-08-10T09:21:55.436Z,24.57
2018-08-10T09:22:55.416Z,24.65
2018-08-10T09:23:55.362Z,24.43
2018-08-10T09:24:55.348Z,24.80
2018-08-10T09:25:55.314Z,25.25
2018-08-10T09:26:55.325Z,25.40
2018-08-10T09:27:55.264Z,24.88
2018-08-10T09:28:55.216Z,24.47
2018-08-10T09:29:55.193Z,24.27
2018-08-10T09:30:55.161Z,24.27
2018-08-10T09:31:55.136Z,23.63
2018-08-10T09:32:55.142Z,23.00
2018-08-10T09:33:55.075Z,22.62
2018-08-10T09:34:55.039Z,23.00
2018-08-10T09:35:55.015Z,22.61
2018-08-10T09:36:54.972Z,22.24
2018-08-10T09:37:54.941Z,22.77
2018-08-10T09:38:54.945Z,23.23
2018-08-10T09:39:54.883Z,23.83
2018-08-10T09:40:54.848Z,24.35
2018-08-10T09:41:54.814Z,24.73
2018-08-10T09:42:54.824Z,25.13
2018-08-10T09:43:54.781Z,25.32
2018-08-10T09:44:54.728Z,25.47
2018-08-10T09:45:54.701Z,25.46
2018-08-10T09:46:54.665Z,25.69
2018-08-10T09:47:54.630Z,25.62
2018-08-10T09:48:54.625Z,25.75
2018-08-10T09:49:54.567Z,25.61
2018-08-10T09:50:54.551Z,25.60
2018-08-10T09:51:54.580Z,25.83
2018-08-10T09:52:54.497Z,26.09
2018-08-10T09:53:54.492Z,26.29
2018-08-10T09:54:54.419Z,25.82
2018-08-10T09:55:54.391Z,25.94
2018-08-10T09:56:54.369Z,25.61
2018-08-10T09:57:54.346Z,25.33
2018-08-10T09:58:54.305Z,25.77
2018-08-10T09:59:54.370Z,25.51
2018-08-10T10:00:54.244Z,25.17
2018-08-10T10:01:54.213Z,25.06
2018-08-10T10:02:54.195Z,25.06
2018-08-10T10:03:54.164Z,25.35
2018-08-10T10:04:54.159Z,25.64
2018-08-10T10:05:54.110Z,25.65
2018-08-10T10:06:54.068Z,25.72
2018-08-10T10:07:54.040Z,24.96
2018-08-10T10:08:54.037Z,24.69
2018-08-10T10:09:53.985Z,23.98
2018-08-10T10:10:53.977Z,23.43
2018-08-10T10:11:53.931Z,23.23
2018-08-10T10:12:53.896Z,23.04
2018-08-10T10:13:53.862Z,22.92
2018-08-10T10:14:53.840Z,22.76
2018-08-10T10:15:53.839Z,22.60
2018-08-10T10:16:53.776Z,22.61
2018-08-10T10:17:53.748Z,22.31
2018-08-10T10:18:53.709Z,22.28
2018-08-10T10:19:53.674Z,22.31
2018-08-10T10:20:53.682Z,22.60
2018-08-10T10:21:53.615Z,23.36
2018-08-10T10:23:03.931Z,23.16
2018-08-10T10:23:53.553Z,23.35
2018-08-10T10:24:53.517Z,23.47
2018-08-10T10:25:53.509Z,23.39
2018-08-10T10:26:53.456Z,23.42
2018-08-10T10:27:53.424Z,24.21
2018-08-10T10:28:53.391Z,24.20
2018-08-10T10:29:53.355Z,23.95
2018-08-10T10:30:53.320Z,23.68
2018-08-10T10:31:53.311Z,23.22
2018-08-10T10:32:53.261Z,23.07
2018-08-10T10:33:53.230Z,23.07
2018-08-10T10:34:53.202Z,23.54
2018-08-10T10:35:53.167Z,24.00
2018-08-10T10:36:53.156Z,23.73
2018-08-10T10:37:53.100Z,23.40
2018-08-10T10:38:53.061Z,23.22
2018-08-10T10:39:53.033Z,23.15
2018-08-10T10:40:53.006Z,22.79
2018-08-10T10:41:52.977Z,22.62
2018-08-10T10:42:52.961Z,22.65
2018-08-10T10:43:52.907Z,22.80
2018-08-10T10:44:52.874Z,22.75
2018-08-10T10:45:52.843Z,22.76
2018-08-10T10:46:52.814Z,23.27
2018-08-10T10:47:52.811Z,23.54
2018-08-10T10:48:52.744Z,23.39
2018-08-10T10:49:52.709Z,23.63
2018-08-10T10:50:52.690Z,23.84
2018-08-10T10:51:52.646Z,24.25
2018-08-10T10:52:52.657Z,24.13
2018-08-10T10:53:52.587Z,23.95
2018-08-10T10:54:52.551Z,24.25
2018-08-10T10:55:52.523Z,24.45
2018-08-10T10:56:52.511Z,24.80
2018-08-10T10:57:52.469Z,24.90
2018-08-10T10:58:52.424Z,25.28
2018-08-10T10:59:52.396Z,25.39
2018-08-10T11:00:52.356Z,25.36
2018-08-10T11:01:52.325Z,25.65
2018-08-10T11:02:52.317Z,25.27
2018-08-10T11:03:52.256Z,24.64
2018-08-10T11:04:52.235Z,24.37
2018-08-10T11:05:52.207Z,24.21
2018-08-10T11:06:52.175Z,24.00
2018-08-10T11:07:52.171Z,23.70
2018-08-10T11:08:52.107Z,23.39
2018-08-10T11:09:52.075Z,23.61
2018-08-10T11:10:52.043Z,23.35
2018-08-10T11:11:52.014Z,23.33
2018-08-10T11:12:51.997Z,23.42
2018-08-10T11:13:51.980Z,23.76
2018-08-10T11:14:51.917Z,24.31
2018-08-10T11:15:51.888Z,24.40
2018-08-10T11:16:51.866Z,24.69
2018-08-10T11:17:51.830Z,24.88
2018-08-10T11:18:51.830Z,24.98
2018-08-10T11:19:51.768Z,25.03
2018-08-10T11:20:51.734Z,25.10
2018-08-10T11:21:51.705Z,25.32
2018-08-10T11:22:51.673Z,25.45
2018-08-10T11:23:51.705Z,25.75
2018-08-10T11:24:51.614Z,26.09
2018-08-10T11:25:51.682Z,25.87
2018-08-10T11:26:51.553Z,26.07
2018-08-10T11:27:51.521Z,26.48
2018-08-10T11:28:51.509Z,26.66
2018-08-10T11:29:51.456Z,26.40
2018-08-10T11:30:51.440Z,25.85
2018-08-10T11:31:51.454Z,25.83
2018-08-10T11:32:51.376Z,25.87
2018-08-10T11:33:51.373Z,25.67
2018-08-10T11:34:51.313Z,25.36
2018-08-10T11:35:51.309Z,25.24
2018-08-10T11:36:51.284Z,25.02
2018-08-10T11:37:51.253Z,24.50
2018-08-10T11:38:51.213Z,24.64
2018-08-10T11:39:51.199Z,24.95
2018-08-10T11:40:51.167Z,24.80
2018-08-10T11:41:51.115Z,24.46
2018-08-10T11:42:51.097Z,24.22
2018-08-10T11:43:51.060Z,23.98
2018-08-10T11:44:51.085Z,23.93
2018-08-10T11:45:51.005Z,23.83
2018-08-10T11:46:50.968Z,23.79
2018-08-10T11:47:50.940Z,23.79
2018-08-10T11:48:50.916Z,23.66
2018-08-10T11:49:50.910Z,24.21
2018-08-10T11:50:50.854Z,24.64
2018-08-10T11:51:50.820Z,24.88
2018-08-10T11:52:50.800Z,25.15
2018-08-10T11:53:50.755Z,25.35
2018-08-10T11:54:50.749Z,25.40
2018-08-10T11:55:50.694Z,25.50
2018-08-10T11:56:50.671Z,25.79
2018-08-10T11:57:50.657Z,25.87
2018-08-10T11:58:50.607Z,25.92
2018-08-10T11:59:50.629Z,26.10
2018-08-10T12:00:50.566Z,25.82
2018-08-10T12:01:50.524Z,25.82
2018-08-10T12:02:50.522Z,25.27
2018-08-10T12:03:50.463Z,24.95
2018-08-10T12:04:50.426Z,24.55
2018-08-10T12:05:50.455Z,24.31
2018-08-10T12:06:50.369Z,24.25
2018-08-10T12:07:50.342Z,24.47
2018-08-10T12:08:50.315Z,24.65
2018-08-10T12:09:50.288Z,24.49
2018-08-10T12:10:50.257Z,24.65
2018-08-10T12:11:50.247Z,24.96
2018-08-10T12:12:50.258Z,24.90
2018-08-10T12:13:50.159Z,25.14
2018-08-10T12:14:50.126Z,25.21
2018-08-10T12:15:50.100Z,25.32
2018-08-10T12:16:50.096Z,25.45
2018-08-10T12:17:50.045Z,25.47
2018-08-10T12:18:50.005Z,25.15
2018-08-10T12:19:49.981Z,24.87
2018-08-10T12:20:49.957Z,24.68
2018-08-10T12:21:49.956Z,24.40
2018-08-10T12:22:49.901Z,23.91
2018-08-10T12:23:49.868Z,23.88
2018-08-10T12:24:49.956Z,23.80
2018-08-10T12:25:49.796Z,23.80
2018-08-10T12:26:49.790Z,23.76
2018-08-10T12:27:49.735Z,23.63
2018-08-10T12:28:49.715Z,23.55
2018-08-10T12:29:49.682Z,23.47
2018-08-10T12:30:49.654Z,23.91
2018-08-10T12:31:49.640Z,24.22
2018-08-10T12:32:49.587Z,24.28
2018-08-10T12:33:49.554Z,24.50
2018-08-10T12:34:49.521Z,24.34
2018-08-10T12:35:49.490Z,24.32
2018-08-10T12:36:49.475Z,24.55
2018-08-10T12:37:49.423Z,24.77
2018-08-10T12:38:49.394Z,25.09
2018-08-10T12:39:49.357Z,25.25
2018-08-10T12:40:49.331Z,25.27
2018-08-10T12:41:49.349Z,25.32
2018-08-10T12:42:49.270Z,25.27
2018-08-10T12:43:49.240Z,25.38
2018-08-10T12:44:49.203Z,25.60
2018-08-10T12:45:49.170Z,25.72
2018-08-10T12:46:49.140Z,25.83
2018-08-10T12:47:49.134Z,25.79
2018-08-10T12:48:49.086Z,25.85
2018-08-10T12:49:49.059Z,25.87
2018-08-10T12:50:49.025Z,25.50
2018-08-10T12:51:48.990Z,25.05